Time;durP1;ratioP1;P1;durP2;ratioP2;P2;SDS_P1;SDS_P2;PMS_P1;PMS_P2;Temp;Humidity;BMP_temperature;BMP_pressure;BME280_temperature;BME280_humidity;BME280_pressure;Samples;Min_cycle;Max_cycle;Signal;HPM_P1;HPM_P2
2022/06/24 00:01:54;;;;;;;;;13.25;13.25;;;;;24.99;55.65;100708.22;5002691;28;8823;-65
2022/06/24 00:04:25;;;;;;;;;14.25;12.25;;;;;24.97;55.73;100707.72;5013235;28;8858;-65
2022/06/24 00:06:52;;;;;;;;;10.25;8.25;;;;;24.96;55.69;100706.91;5014664;28;8873;-66
2022/06/24 00:09:19;;;;;;;;;12.25;12.25;;;;;24.96;55.71;100712.41;5016607;28;8913;-66
2022/06/24 00:12:01;;;;;;;;;14.50;11.75;;;;;24.90;55.65;100714.38;5013303;28;8832;-65
2022/06/24 00:14:27;;;;;;;;;17.25;15.00;;;;;24.90;55.96;100710.81;5012647;28;8843;-65
2022/06/24 00:16:54;;;;;;;;;12.50;12.50;;;;;24.90;56.16;100708.88;4996139;28;8845;-65
2022/06/24 00:19:21;;;;;;;;;19.75;18.25;;;;;24.79;56.58;100701.84;4993951;28;8838;-65
2022/06/24 00:22:04;;;;;;;;;14.50;14.50;;;;;24.72;57.25;100703.31;5013076;28;8811;-64
2022/06/24 00:24:32;;;;;;;;;15.00;15.00;;;;;24.70;57.67;100695.34;5013720;28;8839;-65
2022/06/24 00:26:59;;;;;;;;;18.75;17.25;;;;;24.70;58.07;100676.06;4996038;28;8912;-66
2022/06/24 00:29:29;;;;;;;;;17.25;17.00;;;;;24.60;59.02;100660.50;5001526;28;8914;-65
2022/06/24 00:32:00;;;;;;;;;13.50;13.00;;;;;24.55;59.51;100649.56;5006598;28;8812;-67
2022/06/24 00:34:27;;;;;;;;;22.25;18.25;;;;;24.46;60.18;100637.53;5014853;28;8882;-66
2022/06/24 00:36:53;;;;;;;;;17.25;16.00;;;;;24.40;60.24;100650.53;5014256;28;8936;-66
2022/06/24 00:39:20;;;;;;;;;19.75;19.50;;;;;24.41;60.37;100667.84;5010464;28;8860;-67
2022/06/24 00:41:53;;;;;;;;;14.25;14.00;;;;;24.39;60.67;100664.59;4987727;28;8907;-67
2022/06/24 00:44:22;;;;;;;;;12.50;12.50;;;;;24.38;60.78;100646.41;5009063;28;8930;-66
2022/06/24 00:46:52;;;;;;;;;12.25;12.00;;;;;24.33;60.94;100630.75;5013443;28;8910;-66
2022/06/24 00:49:25;;;;;;;;;14.75;12.50;;;;;24.24;61.23;100626.19;5013855;28;8823;-67
2022/06/24 00:51:52;;;;;;;;;22.75;21.25;;;;;24.18;61.25;100622.66;5013051;28;8820;-66
2022/06/24 00:54:22;;;;;;;;;14.75;13.25;;;;;24.11;61.58;100631.28;4999944;28;9524;-66
2022/06/24 00:56:54;;;;;;;;;9.75;9.75;;;;;24.14;61.36;100638.91;5005904;28;8815;-66
2022/06/24 00:59:22;;;;;;;;;9.00;8.50;;;;;24.15;61.00;100640.56;5009527;28;8897;-65
2022/06/24 01:01:49;;;;;;;;;13.50;10.25;;;;;24.15;60.72;100631.50;5011107;28;8826;-65
2022/06/24 01:04:16;;;;;;;;;8.25;8.25;;;;;24.12;60.21;100615.59;5012084;28;8894;-65
2022/06/24 01:06:44;;;;;;;;;10.00;8.50;;;;;24.15;60.00;100607.56;5010901;28;8914;-65
2022/06/24 01:09:12;;;;;;;;;14.00;14.00;;;;;24.14;59.91;100602.34;5011392;28;8832;-65
2022/06/24 01:11:41;;;;;;;;;9.50;9.50;;;;;24.12;59.81;100577.91;5009575;28;8819;-66
2022/06/24 01:14:09;;;;;;;;;11.50;11.00;;;;;24.15;59.67;100560.00;5007939;28;8905;-65
2022/06/24 01:16:36;;;;;;;;;13.50;13.50;;;;;24.14;59.72;100561.09;5008713;28;8890;-66
2022/06/24 01:19:08;;;;;;;;;11.00;11.00;;;;;24.04;59.48;100559.28;5010884;28;9518;-66
2022/06/24 01:21:38;;;;;;;;;8.75;8.75;;;;;24.02;59.62;100564.25;4991619;28;8815;-66
2022/06/24 01:24:09;;;;;;;;;9.75;9.75;;;;;24.03;59.71;100573.34;4994295;28;8938;-67
2022/06/24 01:26:39;;;;;;;;;9.75;9.75;;;;;24.04;59.58;100591.47;5009315;28;8833;-67
2022/06/24 01:29:11;;;;;;;;;14.75;14.75;;;;;23.95;59.96;100604.22;5008925;28;8846;-67
2022/06/24 01:31:40;;;;;;;;;8.50;8.50;;;;;23.95;60.23;100617.97;5010532;28;8823;-67
2022/06/24 01:34:08;;;;;;;;;11.75;11.75;;;;;23.99;60.24;100661.06;4997701;28;8928;-67
2022/06/24 01:36:35;;;;;;;;;9.33;9.00;;;;;24.03;60.51;100689.66;5006230;28;8835;-66
2022/06/24 01:39:03;;;;;;;;;14.00;11.25;;;;;24.04;60.65;100728.97;5007815;28;8836;-67
2022/06/24 01:41:30;;;;;;;;;16.25;16.25;;;;;23.98;61.39;100769.41;5010155;28;8866;-67
2022/06/24 01:43:56;;;;;;;;;19.00;18.50;;;;;23.90;63.42;100783.75;5009969;28;8930;-67
2022/06/24 01:46:23;;;;;;;;;25.00;23.25;;;;;23.65;64.46;100768.22;5009954;28;8848;-67
2022/06/24 01:48:50;;;;;;;;;27.25;25.50;;;;;23.37;65.45;100759.53;5010201;28;8860;-67
2022/06/24 01:51:19;;;;;;;;;27.75;26.75;;;;;23.10;66.19;100759.13;5003308;28;8822;-66
2022/06/24 01:53:45;;;;;;;;;28.25;27.00;;;;;22.89;66.47;100761.09;5001068;28;8835;-67
2022/06/24 01:56:12;;;;;;;;;24.75;24.25;;;;;22.78;66.72;100770.44;5010585;28;8835;-66
2022/06/24 01:58:38;;;;;;;;;27.75;25.25;;;;;22.61;66.91;100765.25;5010157;28;8844;-66
2022/06/24 02:01:05;;;;;;;;;23.25;23.25;;;;;22.53;67.43;100777.59;5008442;28;8831;-66
2022/06/24 02:03:34;;;;;;;;;24.25;22.50;;;;;22.38;67.44;100780.34;5009027;28;8835;-67
2022/06/24 02:06:03;;;;;;;;;20.75;19.25;;;;;22.33;67.90;100807.78;5000202;28;8920;-67
2022/06/24 02:08:30;;;;;;;;;23.75;23.00;;;;;22.26;67.92;100823.66;5008133;28;9635;-67
2022/06/24 02:13:47;;;;;;;;;8.00;7.00;;;;;21.85;67.04;100812.59;5009575;28;8824;-67
2022/06/24 02:16:15;;;;;;;;;5.75;5.75;;;;;21.61;66.71;100793.91;5004837;28;8870;-66
2022/06/24 02:18:42;;;;;;;;;4.00;4.00;;;;;21.44;66.61;100791.38;5009240;28;8860;-66
2022/06/24 02:21:09;;;;;;;;;2.00;2.00;;;;;21.29;65.96;100772.09;5009386;28;9522;-66
2022/06/24 02:23:36;;;;;;;;;1.75;1.75;;;;;21.15;65.76;100747.13;5007419;28;8862;-67
2022/06/24 02:26:02;;;;;;;;;1.50;1.00;;;;;21.07;65.72;100742.19;5009629;28;8931;-67
2022/06/24 02:28:29;;;;;;;;;1.75;1.75;;;;;20.90;65.77;100720.47;5006903;28;8925;-66
2022/06/24 02:30:57;;;;;;;;;0.25;0.25;;;;;20.93;65.83;100710.91;5007425;28;8827;-68
2022/06/24 02:33:25;;;;;;;;;0.25;0.25;;;;;20.98;65.67;100697.22;5008297;28;8843;-67
2022/06/24 02:35:52;;;;;;;;;1.25;1.25;;;;;21.00;65.68;100664.97;5008585;28;9874;-67
2022/06/24 02:38:18;;;;;;;;;1.00;1.00;;;;;20.92;65.78;100654.53;5008534;28;8836;-67
2022/06/24 02:40:45;;;;;;;;;1.00;1.00;;;;;20.89;66.17;100642.19;5006809;28;8864;-67
2022/06/24 02:43:20;;;;;;;;;2.00;2.00;;;;;20.86;66.54;100625.50;5009314;28;8828;-67
2022/06/24 02:45:47;;;;;;;;;3.50;1.50;;;;;20.93;66.50;100609.66;5011994;28;8897;-64
2022/06/24 02:48:15;;;;;;;;;3.00;2.75;;;;;20.83;66.68;100607.72;5012010;28;8823;-65
2022/06/24 02:50:43;;;;;;;;;2.50;2.50;;;;;20.77;67.09;100619.72;5011757;28;8827;-65
2022/06/24 02:53:12;;;;;;;;;4.50;3.00;;;;;20.80;67.17;100627.41;5007087;28;8844;-65
2022/06/24 02:55:38;;;;;;;;;3.00;3.00;;;;;20.74;67.18;100625.72;5011021;28;9017;-64
2022/06/24 02:58:05;;;;;;;;;2.25;2.00;;;;;20.76;67.29;100630.94;5006282;28;8853;-65
2022/06/24 03:00:32;;;;;;;;;3.25;3.25;;;;;20.82;67.42;100640.78;5004397;28;8957;-65
2022/06/24 03:02:59;;;;;;;;;3.75;3.75;;;;;20.92;67.49;100646.31;5008708;28;8839;-65
2022/06/24 03:05:26;;;;;;;;;3.75;3.75;;;;;20.99;67.41;100644.97;5010236;28;8851;-65
2022/06/24 03:07:53;;;;;;;;;4.50;3.75;;;;;21.05;67.26;100643.06;5008071;28;9529;-65
2022/06/24 03:10:21;;;;;;;;;3.50;3.50;;;;;21.10;67.50;100640.34;5005913;28;8851;-65
2022/06/24 03:12:47;;;;;;;;;3.25;3.00;;;;;21.10;67.32;100645.81;5010275;28;8859;-66
2022/06/24 03:15:15;;;;;;;;;3.50;3.50;;;;;21.12;67.52;100635.44;5011306;28;8843;-65
2022/06/24 03:17:41;;;;;;;;;4.00;3.25;;;;;21.16;67.30;100619.31;4992158;28;8901;-66
2022/06/24 03:20:09;;;;;;;;;2.75;2.75;;;;;21.14;67.26;100621.47;4995195;28;8843;-65
2022/06/24 03:22:36;;;;;;;;;2.75;2.00;;;;;21.16;67.37;100630.25;5010513;28;9519;-65
2022/06/24 03:25:03;;;;;;;;;2.00;2.00;;;;;21.19;67.27;100638.75;5012098;28;8858;-65
2022/06/24 03:27:30;;;;;;;;;4.50;4.50;;;;;21.23;67.27;100645.34;5013773;28;8831;-65
2022/06/24 03:29:56;;;;;;;;;4.00;4.00;;;;;21.26;67.17;100654.91;5007944;28;8831;-65
2022/06/24 03:32:23;;;;;;;;;4.75;3.25;;;;;21.28;67.23;100649.19;5012985;28;8877;-65
2022/06/24 03:34:49;;;;;;;;;4.00;3.25;;;;;21.29;67.27;100637.13;5012837;28;8843;-65
2022/06/24 03:37:17;;;;;;;;;4.00;4.00;;;;;21.24;67.03;100632.47;5014154;28;8851;-65
2022/06/24 03:39:43;;;;;;;;;4.50;4.50;;;;;21.24;67.31;100648.88;5014407;28;9534;-65
2022/06/24 03:42:10;;;;;;;;;4.25;4.25;;;;;21.25;67.55;100664.22;5010138;28;8855;-64
2022/06/24 03:44:36;;;;;;;;;4.25;4.00;;;;;21.25;67.59;100669.69;5009824;28;8848;-65
2022/06/24 03:47:10;;;;;;;;;3.00;3.00;;;;;21.23;67.94;100678.19;5012431;28;8832;-64
2022/06/24 03:49:37;;;;;;;;;5.50;5.50;;;;;21.23;68.02;100682.84;5014931;28;8827;-65
2022/06/24 03:52:04;;;;;;;;;4.75;4.25;;;;;21.22;67.95;100686.66;5013259;28;8882;-65
2022/06/24 03:54:31;;;;;;;;;6.00;6.00;;;;;21.20;68.02;100684.19;4984342;28;8897;-65
2022/06/24 03:56:57;;;;;;;;;5.50;4.00;;;;;21.19;67.73;100700.91;5011080;28;8858;-65
2022/06/24 03:59:24;;;;;;;;;5.00;5.00;;;;;21.16;67.96;100698.69;5013859;28;8825;-64
2022/06/24 04:01:50;;;;;;;;;5.75;5.75;;;;;21.15;68.18;100706.09;5012659;28;8933;-65
2022/06/24 04:04:17;;;;;;;;;5.00;4.75;;;;;21.13;68.02;100702.78;5009042;28;8843;-65
2022/06/24 04:06:43;;;;;;;;;4.75;4.75;;;;;21.10;68.26;100688.78;4996215;28;8836;-64
2022/06/24 04:09:10;;;;;;;;;4.75;4.75;;;;;21.11;68.50;100676.78;4997120;28;8811;-65
2022/06/24 04:11:36;;;;;;;;;5.00;5.00;;;;;21.10;68.52;100661.44;5009853;28;8815;-65
2022/06/24 04:14:03;;;;;;;;;3.00;3.00;;;;;21.06;68.51;100641.97;5013674;28;8839;-65
2022/06/24 04:16:30;;;;;;;;;6.00;6.00;;;;;20.99;68.62;100620.34;5041392;23;8977;-64
2022/06/24 04:18:56;;;;;;;;;5.50;4.75;;;;;20.98;68.57;100605.03;5057336;28;8846;-64
2022/06/24 04:21:23;;;;;;;;;7.50;5.00;;;;;20.95;68.71;100589.16;5051085;28;8908;-64
2022/06/24 04:23:50;;;;;;;;;4.00;4.00;;;;;20.91;68.96;100588.03;5052880;28;8892;-64
2022/06/24 04:26:18;;;;;;;;;6.75;6.25;;;;;20.91;68.96;100585.31;5062428;28;8822;-63
2022/06/24 04:28:45;;;;;;;;;7.25;6.50;;;;;20.89;68.86;100581.19;5074560;28;8910;-63
2022/06/24 04:31:13;;;;;;;;;8.00;7.75;;;;;20.85;69.16;100585.56;5071299;28;8910;-64
2022/06/24 04:33:40;;;;;;;;;9.25;8.00;;;;;20.80;69.38;100586.34;5073775;28;8824;-65
2022/06/24 04:36:13;;;;;;;;;5.00;5.00;;;;;20.73;69.70;100580.31;5069426;28;8859;-63
2022/06/24 04:38:41;;;;;;;;;5.50;4.75;;;;;20.70;69.74;100583.56;5069478;28;9556;-64
2022/06/24 04:41:18;;;;;;;;;8.50;8.50;;;;;20.71;69.65;100577.03;5075000;28;8824;-64
2022/06/24 04:43:44;;;;;;;;;5.75;5.75;;;;;20.63;69.74;100575.63;5061558;28;8820;-64
2022/06/24 04:46:11;;;;;;;;;7.75;7.75;;;;;20.62;70.03;100581.34;5081582;28;8825;-64
2022/06/24 04:48:38;;;;;;;;;9.75;5.50;;;;;20.67;70.13;100589.59;5084831;28;9644;-64
2022/06/24 04:51:04;;;;;;;;;8.75;8.00;;;;;20.70;69.94;100597.25;5074705;28;8840;-64
2022/06/24 04:53:31;;;;;;;;;8.25;7.75;;;;;20.72;70.07;100595.91;5045589;28;8854;-64
2022/06/24 04:55:57;;;;;;;;;7.75;7.25;;;;;20.75;70.06;100589.09;5077016;28;8953;-63
2022/06/24 04:58:24;;;;;;;;;6.00;6.00;;;;;20.75;69.97;100591.81;5069382;28;8900;-63
2022/06/24 05:00:51;;;;;;;;;7.00;7.00;;;;;20.78;69.93;100593.19;5076499;28;8844;-64
2022/06/24 05:03:17;;;;;;;;;6.50;6.50;;;;;20.81;70.34;100593.47;5064998;28;9221;-63
2022/06/24 05:05:44;;;;;;;;;8.00;6.75;;;;;20.81;69.88;100588.00;5075796;28;8923;-63
2022/06/24 05:08:10;;;;;;;;;9.25;9.25;;;;;20.81;70.13;100592.66;5065287;28;8847;-63
2022/06/24 05:10:37;;;;;;;;;7.50;7.50;;;;;20.83;70.17;100604.16;5056995;28;8829;-64
2022/06/24 05:13:03;;;;;;;;;8.25;8.25;;;;;20.83;70.31;100604.16;5068691;28;8836;-63
2022/06/24 05:15:30;;;;;;;;;7.75;7.75;;;;;20.82;70.37;100603.31;5072943;28;8864;-64
2022/06/24 05:17:56;;;;;;;;;7.75;6.50;;;;;20.85;70.46;100604.69;5063302;28;8901;-63
2022/06/24 05:20:23;;;;;;;;;7.50;7.50;;;;;20.86;70.61;100601.69;5079907;28;8829;-63
2022/06/24 05:22:49;;;;;;;;;8.75;8.75;;;;;20.85;70.47;100593.75;5060021;28;8831;-63
2022/06/24 05:25:16;;;;;;;;;7.25;7.00;;;;;20.86;70.55;100587.19;5062507;28;8825;-63
2022/06/24 05:27:42;;;;;;;;;8.25;7.25;;;;;20.86;70.59;100577.06;5070542;28;8863;-63
2022/06/24 05:30:10;;;;;;;;;8.25;8.25;;;;;20.85;70.63;100559.00;5077558;28;8842;-64
2022/06/24 05:32:36;;;;;;;;;6.75;6.00;;;;;20.83;70.45;100552.19;5059645;28;8848;-61
2022/06/24 05:35:08;;;;;;;;;7.50;7.50;;;;;20.82;70.60;100551.34;5072527;28;8947;-62
2022/06/24 05:37:34;;;;;;;;;9.00;7.75;;;;;20.82;70.50;100548.59;5035159;28;9593;-64
2022/06/24 05:40:01;;;;;;;;;12.00;10.50;;;;;20.80;70.47;100558.19;5062528;28;8837;-64
2022/06/24 05:42:29;;;;;;;;;10.50;9.75;;;;;20.79;70.74;100551.06;5058946;28;8921;-63
2022/06/24 05:44:56;;;;;;;;;10.25;9.25;;;;;20.70;70.43;100546.13;5042645;28;8885;-65
2022/06/24 05:47:22;;;;;;;;;9.25;9.00;;;;;20.61;70.87;100550.44;5062943;28;8835;-63
2022/06/24 05:49:49;;;;;;;;;11.00;11.00;;;;;20.63;71.29;100547.47;5073367;28;8829;-65
2022/06/24 05:52:15;;;;;;;;;9.25;9.00;;;;;20.67;71.14;100568.53;5083284;28;8834;-63
2022/06/24 05:57:27;;;;;;;;;11.00;10.50;;;;;20.64;71.38;100612.81;5065303;28;8837;-64
2022/06/24 05:59:53;;;;;;;;;11.00;10.25;;;;;20.63;71.56;100605.72;5073517;28;8844;-64
2022/06/24 06:02:22;;;;;;;;;8.75;8.50;;;;;20.62;71.71;100604.09;5070963;28;8829;-64
2022/06/24 06:04:49;;;;;;;;;10.75;10.00;;;;;20.63;71.85;100610.38;5051049;28;8954;-63
2022/06/24 06:07:16;;;;;;;;;15.50;15.00;;;;;20.64;71.97;100604.63;5072364;28;8902;-66
2022/06/24 06:09:43;;;;;;;;;8.00;8.00;;;;;20.66;72.05;100602.47;5073937;28;8882;-64
2022/06/24 06:12:09;;;;;;;;;14.00;10.75;;;;;20.69;71.86;100607.38;5074690;28;8836;-63
2022/06/24 06:14:36;;;;;;;;;14.25;12.50;;;;;20.70;72.02;100609.03;5072882;28;8907;-64
2022/06/24 06:17:03;;;;;;;;;14.75;14.75;;;;;20.69;72.05;100612.03;5065343;28;8843;-64
2022/06/24 06:19:32;;;;;;;;;15.50;14.50;;;;;20.66;72.05;100613.41;5074572;28;8847;-64
2022/06/24 06:21:58;;;;;;;;;20.00;18.25;;;;;20.65;72.04;100611.72;5060148;28;8828;-64
2022/06/24 06:24:25;;;;;;;;;14.25;13.75;;;;;20.66;71.98;100613.41;5061663;28;9599;-64
2022/06/24 06:26:51;;;;;;;;;16.50;14.75;;;;;20.67;72.15;100614.22;5067843;28;8921;-64
2022/06/24 06:29:18;;;;;;;;;15.00;15.00;;;;;20.67;72.42;100620.50;5071365;28;8906;-64
2022/06/24 06:31:44;;;;;;;;;16.25;14.00;;;;;20.66;72.43;100615.28;5072457;28;8949;-65
2022/06/24 06:34:11;;;;;;;;;18.50;15.75;;;;;20.68;72.18;100621.31;5055888;28;8834;-64
2022/06/24 06:36:37;;;;;;;;;24.00;17.75;;;;;20.67;72.39;100614.22;5062375;28;9588;-64
2022/06/24 06:39:04;;;;;;;;;21.00;21.00;;;;;20.67;72.33;100619.69;5073451;28;8832;-65
2022/06/24 06:41:30;;;;;;;;;21.00;18.25;;;;;20.64;72.34;100615.56;5070268;28;9574;-65
2022/06/24 06:43:57;;;;;;;;;14.50;14.50;;;;;20.63;72.30;100618.56;5066987;28;8915;-64
2022/06/24 06:46:24;;;;;;;;;16.50;13.75;;;;;20.63;72.22;100622.13;5065837;28;8845;-63
2022/06/24 06:48:51;;;;;;;;;18.50;15.50;;;;;20.65;72.31;100628.13;5069696;28;8911;-62
2022/06/24 06:51:17;;;;;;;;;19.25;17.00;;;;;20.65;72.48;100633.59;5069488;28;8899;-64
2022/06/24 06:53:44;;;;;;;;;17.00;15.25;;;;;20.64;72.40;100626.50;5069522;28;8844;-63
2022/06/24 06:56:10;;;;;;;;;16.25;15.50;;;;;20.64;72.52;100622.94;5069050;28;8852;-65
2022/06/24 06:58:37;;;;;;;;;15.50;15.50;;;;;20.64;72.32;100626.50;5071128;28;8821;-64
2022/06/24 07:01:04;;;;;;;;;17.00;14.00;;;;;20.64;72.63;100626.50;5070943;28;8913;-64
2022/06/24 07:03:30;;;;;;;;;12.50;11.50;;;;;20.65;72.00;100621.84;5059558;28;8842;-64
2022/06/24 07:05:57;;;;;;;;;13.00;10.75;;;;;20.67;72.32;100625.97;5063678;28;9612;-64
2022/06/24 07:08:23;;;;;;;;;14.50;12.75;;;;;20.67;72.42;100616.94;5064938;28;8863;-65
2022/06/24 07:10:50;;;;;;;;;12.25;11.00;;;;;20.68;72.18;100626.78;5072046;28;8813;-65
2022/06/24 07:13:16;;;;;;;;;9.75;9.75;;;;;20.67;72.41;100628.72;5069710;28;8821;-63
2022/06/24 07:15:43;;;;;;;;;11.25;11.25;;;;;20.66;72.02;100634.44;5064303;28;8855;-65
2022/06/24 07:18:09;;;;;;;;;14.50;14.00;;;;;20.64;71.96;100623.78;5072935;28;9672;-65
2022/06/24 07:20:36;;;;;;;;;13.25;13.25;;;;;20.64;71.81;100628.41;5073075;28;8913;-65
2022/06/24 07:23:03;;;;;;;;;10.25;10.25;;;;;20.64;71.81;100631.97;5072356;28;8820;-64
2022/06/24 07:25:30;;;;;;;;;9.25;9.25;;;;;20.64;72.14;100629.25;5068475;28;8852;-64
2022/06/24 07:27:57;;;;;;;;;11.25;10.50;;;;;20.62;72.32;100628.69;5063841;28;8823;-65
2022/06/24 07:30:24;;;;;;;;;11.00;10.50;;;;;20.63;72.57;100624.88;5063240;28;8846;-66
2022/06/24 07:32:50;;;;;;;;;11.50;11.50;;;;;20.63;72.48;100635.81;5053591;28;8831;-65
2022/06/24 07:35:17;;;;;;;;;10.75;10.50;;;;;20.63;72.37;100637.72;5055670;28;8941;-65
2022/06/24 07:38:03;;;;;;;;;12.00;12.00;;;;;20.64;72.28;100631.97;5052732;28;8943;-64
2022/06/24 07:40:30;;;;;;;;;10.00;10.00;;;;;20.63;72.58;100633.06;5065332;28;8833;-65
2022/06/24 07:42:56;;;;;;;;;10.25;9.00;;;;;20.60;72.24;100627.31;5072527;28;8840;-65
2022/06/24 07:45:23;;;;;;;;;10.50;10.50;;;;;20.58;72.46;100641.25;5070006;28;8793;-65
2022/06/24 07:47:49;;;;;;;;;10.00;10.00;;;;;20.56;72.31;100637.94;5060326;28;8928;-64
2022/06/24 07:50:16;;;;;;;;;15.25;14.25;;;;;20.56;72.19;100640.69;5063808;28;8837;-64
2022/06/24 07:52:42;;;;;;;;;15.25;14.75;;;;;20.54;72.32;100652.97;5064601;28;8824;-65
2022/06/24 07:57:54;;;;;;;;;11.00;10.75;;;;;20.49;72.64;100648.28;5072215;28;8905;-65
2022/06/24 08:00:21;;;;;;;;;24.50;19.50;;;;;20.48;72.39;100650.22;5072338;28;8836;-65
2022/06/24 08:02:47;;;;;;;;;15.00;15.00;;;;;20.48;72.60;100643.88;5070041;28;8821;-65
2022/06/24 08:05:15;;;;;;;;;15.50;12.75;;;;;20.53;72.51;100646.69;5068205;28;8958;-65
2022/06/24 08:07:43;;;;;;;;;20.33;19.67;;;;;20.57;72.50;100641.50;5063824;28;8821;-65
2022/06/24 08:10:10;;;;;;;;;14.00;13.00;;;;;20.58;72.56;100646.72;5071526;28;8948;-65
2022/06/24 08:12:37;;;;;;;;;17.75;16.75;;;;;20.61;72.31;100645.34;5072269;28;8899;-62
2022/06/24 08:15:04;;;;;;;;;19.25;18.50;;;;;20.60;72.24;100644.53;5071921;28;9535;-65
2022/06/24 08:17:30;;;;;;;;;26.33;24.00;;;;;20.61;72.25;100637.16;5069240;28;8844;-64
2022/06/24 08:19:57;;;;;;;;;16.25;16.00;;;;;20.63;72.37;100638.53;5066712;28;8924;-65
2022/06/24 08:22:23;;;;;;;;;21.00;20.50;;;;;20.61;72.19;100637.97;5072160;28;8913;-64
2022/06/24 08:24:50;;;;;;;;;22.25;21.50;;;;;20.58;72.16;100637.66;5064816;28;8817;-65
2022/06/24 08:27:36;;;;;;;;;18.50;17.50;;;;;20.60;72.21;100636.34;5057759;28;8913;-65
2022/06/24 08:30:04;;;;;;;;;20.25;18.25;;;;;20.61;72.39;100634.41;5066827;28;8839;-65
2022/06/24 08:32:30;;;;;;;;;3.75;3.75;;;;;20.65;72.56;100643.72;5071744;28;9523;-65
2022/06/24 08:34:57;;;;;;;;;22.00;17.50;;;;;20.67;72.41;100642.38;5071244;28;8948;-66
2022/06/24 08:37:44;;;;;;;;;16.25;15.25;;;;;20.70;72.53;100639.13;5051255;28;8973;-65
2022/06/24 08:40:11;;;;;;;;;18.75;18.75;;;;;20.71;72.58;100637.22;5070121;28;8908;-65
2022/06/24 08:42:38;;;;;;;;;22.00;21.25;;;;;20.65;72.60;100644.56;5068028;28;8840;-64
2022/06/24 08:45:05;;;;;;;;;24.67;22.67;;;;;20.59;72.52;100640.16;5041968;28;8897;-65
2022/06/24 08:47:33;;;;;;;;;20.25;17.00;;;;;20.49;72.15;100645.56;5070776;28;8926;-65
2022/06/24 08:50:03;;;;;;;;;17.25;14.50;;;;;20.46;72.03;100635.97;5071038;28;8828;-65
2022/06/24 08:52:29;;;;;;;;;18.50;15.75;;;;;20.48;72.15;100642.00;5071538;28;9143;-65
2022/06/24 08:54:59;;;;;;;;;15.00;14.25;;;;;20.47;71.99;100634.88;5071067;28;8852;-65
2022/06/24 08:57:25;;;;;;;;;12.25;12.25;;;;;20.49;71.48;100642.81;5066053;28;8898;-65
2022/06/24 08:59:52;;;;;;;;;10.25;9.25;;;;;20.56;71.74;100637.13;5060218;28;8885;-65
2022/06/24 09:02:18;;;;;;;;;17.75;16.75;;;;;20.60;71.39;100638.25;5058230;28;8918;-65
2022/06/24 09:04:45;;;;;;;;;12.25;10.00;;;;;20.65;71.46;100639.06;5068843;28;8840;-65
2022/06/24 09:07:26;;;;;;;;;14.00;14.00;;;;;20.66;71.05;100638.00;5040028;28;9554;-65
2022/06/24 09:10:00;;;;;;;;;14.50;13.75;;;;;20.70;71.04;100630.06;5064168;28;10018;-64
2022/06/24 09:12:36;;;;;;;;;12.75;12.00;;;;;20.73;70.91;100627.63;5065908;28;8851;-65
2022/06/24 09:15:04;;;;;;;;;12.25;9.75;;;;;20.80;70.75;100634.78;5053134;28;8828;-65
2022/06/24 09:17:32;;;;;;;;;8.50;8.50;;;;;20.85;70.91;100627.41;5059738;28;8837;-65
2022/06/24 09:20:13;;;;;;;;;11.75;11.75;;;;;20.90;71.05;100627.44;5062434;28;8836;-64
2022/06/24 09:23:03;;;;;;;;;13.25;11.75;;;;;20.96;71.26;100622.81;5053897;28;8845;-64
2022/06/24 09:25:44;;;;;;;;;15.50;14.75;;;;;20.95;70.85;100627.47;5060036;28;8862;-64
2022/06/24 09:28:18;;;;;;;;;17.25;17.25;;;;;20.95;71.00;100615.69;5060617;28;8819;-64
2022/06/24 09:30:45;;;;;;;;;20.25;20.25;;;;;20.91;70.56;100622.78;5067148;28;8909;-64
2022/06/24 09:33:17;;;;;;;;;29.00;27.67;;;;;20.88;70.28;100621.41;5052861;28;8851;-65
2022/06/24 09:36:01;;;;;;;;;25.00;23.50;;;;;20.82;70.32;100627.13;5070397;28;8987;-64
2022/06/24 09:38:28;;;;;;;;;24.75;24.75;;;;;20.78;70.51;100620.53;5070400;28;9570;-64
2022/06/24 09:41:04;;;;;;;;;30.67;27.33;;;;;20.82;70.63;100625.19;5064468;28;8837;-66
2022/06/24 09:43:31;;;;;;;;;31.00;28.00;;;;;20.81;70.92;100628.22;5064022;28;8920;-64
2022/06/24 09:45:59;;;;;;;;;31.25;27.50;;;;;20.82;70.75;100621.66;5059704;28;8993;-63
2022/06/24 09:48:32;;;;;;;;;30.33;28.33;;;;;20.85;70.69;100627.41;5053971;28;8953;-65
2022/06/24 09:51:02;;;;;;;;;28.00;25.50;;;;;20.88;70.81;100635.09;5058141;28;8919;-63
2022/06/24 09:53:35;;;;;;;;;29.25;28.75;;;;;20.85;70.78;100634.78;5047644;28;8821;-64
2022/06/24 09:56:03;;;;;;;;;30.33;29.67;;;;;20.84;70.56;100642.19;5054261;28;8863;-65
2022/06/24 09:58:31;;;;;;;;;28.50;27.00;;;;;20.91;70.86;100631.81;5057835;28;9006;-64
2022/06/24 10:00:57;;;;;;;;;27.25;27.25;;;;;20.98;70.69;100639.75;5069886;28;8816;-64
2022/06/24 10:03:24;;;;;;;;;29.00;27.50;;;;;21.02;70.61;100634.56;5067389;28;8952;-65
2022/06/24 10:05:52;;;;;;;;;23.75;22.25;;;;;21.03;70.58;100634.34;5065385;28;9570;-64
2022/06/24 10:08:23;;;;;;;;;35.00;33.00;;;;;21.07;70.28;100638.16;5066946;28;8832;-65
2022/06/24 10:10:52;;;;;;;;;32.67;30.00;;;;;21.10;70.15;100628.59;5061484;28;9063;-65
2022/06/24 10:13:34;;;;;;;;;30.00;27.00;;;;;21.13;70.07;100634.34;5061813;28;9082;-66
2022/06/24 10:16:03;;;;;;;;;25.25;24.50;;;;;21.22;70.16;100631.91;5061589;28;8849;-65
2022/06/24 10:18:34;;;;;;;;;20.50;19.75;;;;;21.32;70.16;100628.38;5070219;28;8833;-65
2022/06/24 10:21:03;;;;;;;;;21.00;21.00;;;;;21.37;69.98;100629.22;5069974;28;8917;-66
2022/06/24 10:23:48;;;;;;;;;37.33;33.33;;;;;21.41;69.75;100632.25;5060353;28;8836;-66
2022/06/24 10:26:30;;;;;;;;;25.25;24.25;;;;;21.44;69.43;100626.25;5060357;28;9164;-65
2022/06/24 10:28:59;;;;;;;;;24.25;22.50;;;;;21.51;69.18;100623.22;5063584;28;8906;-65
2022/06/24 10:31:44;;;;;;;;;35.00;32.67;;;;;21.57;68.89;100624.88;5061692;28;8872;-66
2022/06/24 10:34:13;;;;;;;;;28.75;23.50;;;;;21.63;68.88;100627.34;5060139;28;9757;-65
2022/06/24 10:36:39;;;;;;;;;24.50;24.00;;;;;21.73;68.69;100616.38;5070499;28;8878;-65
2022/06/24 10:39:12;;;;;;;;;21.50;21.50;;;;;21.86;68.39;100625.16;5066386;28;9582;-65
2022/06/24 10:41:41;;;;;;;;;33.67;33.67;;;;;21.92;68.55;100626.81;5064838;28;8898;-66
2022/06/24 10:44:25;;;;;;;;;37.00;31.50;;;;;21.90;68.18;100620.78;5069734;28;8992;-65
2022/06/24 10:47:04;;;;;;;;;32.33;31.67;;;;;21.70;65.97;100627.06;5060507;28;8827;-65
2022/06/24 10:49:54;;;;;;;;;23.75;22.50;;;;;21.76;66.27;100611.47;5065942;28;9094;-65
2022/06/24 10:52:33;;;;;;;;;28.00;28.00;;;;;21.71;66.35;100617.75;5056773;28;8836;-64
2022/06/24 10:55:29;;;;;;;;;26.75;23.25;;;;;21.72;66.23;100622.16;5072981;28;9786;-65
2022/06/24 10:58:11;;;;;;;;;20.50;20.50;;;;;21.76;66.12;100620.50;5073143;28;8848;-64
2022/06/24 11:00:37;;;;;;;;;23.25;21.50;;;;;21.80;66.24;100618.88;5073257;28;8828;-65
2022/06/24 11:03:09;;;;;;;;;23.50;18.50;;;;;21.75;64.70;100618.03;5071998;28;8968;-65
2022/06/24 11:05:38;;;;;;;;;17.75;17.25;;;;;21.73;64.11;100621.88;5069634;28;8824;-66
2022/06/24 11:08:13;;;;;;;;;12.25;11.50;;;;;21.86;63.84;100630.63;5070763;28;8846;-65
2022/06/24 11:10:40;;;;;;;;;12.00;12.00;;;;;21.98;63.58;100632.00;5061867;28;9588;-64
2022/06/24 11:13:07;;;;;;;;;12.50;11.00;;;;;22.04;61.80;100627.34;5063115;28;9538;-64
2022/06/24 11:15:48;;;;;;;;;9.50;8.75;;;;;22.14;61.77;100616.38;5070239;28;8813;-66
2022/06/24 11:18:23;;;;;;;;;10.75;10.75;;;;;22.27;61.75;100606.75;5057690;28;8870;-65
2022/06/24 11:20:52;;;;;;;;;7.75;7.75;;;;;22.42;61.45;100611.38;5057267;28;9890;-66
2022/06/24 11:23:20;;;;;;;;;8.50;8.50;;;;;22.50;61.59;100618.22;5054855;28;8910;-65
2022/06/24 11:25:52;;;;;;;;;10.25;9.50;;;;;22.55;60.48;100616.28;5061266;28;8831;-65
2022/06/24 11:28:32;;;;;;;;;12.00;9.50;;;;;22.58;59.82;100621.22;5066882;28;8820;-65
2022/06/24 11:31:20;;;;;;;;;12.25;10.75;;;;;22.58;59.08;100612.97;5050881;28;8848;-65
2022/06/24 11:33:50;;;;;;;;;13.50;12.00;;;;;22.66;59.70;100611.59;5063566;28;8835;-65
2022/06/24 11:36:20;;;;;;;;;13.25;10.50;;;;;22.71;59.10;100604.13;5061211;28;8839;-64
2022/06/24 11:38:57;;;;;;;;;9.75;8.25;;;;;22.79;59.57;100605.47;5049986;28;8848;-64
2022/06/24 11:41:32;;;;;;;;;11.00;10.75;;;;;22.83;59.01;100605.75;5069208;28;8821;-65